Terminal Aerodrome Forecast
Issued by NWS Houston/Galveston TX

Current Version | Previous Version | Text Only | Print | Product List | Glossary Off
Versions: 1 2 3 4 5 6 7 8 9 10 11 12 13 14 15 16 17 18 19 20 21 22 23 24 25 26 27 28 29 30 31

000
FTUS44 KHGX 301234 AAA
TAFHOU
TAF AMD
KHOU 301234Z 3013/3112 VRB05KT P6SM SCT025
     FM301500 06009KT P6SM SKC
     FM302300 08006KT P6SM SCT100
     FM310500 VRB05KT P6SM FEW060=

USA.gov is the U.S. government's official web portal to all federal, state and local government web resources and services.